Time;durP1;ratioP1;P1;durP2;ratioP2;P2;SDS_P1;SDS_P2;PMS_P1;PMS_P2;Temp;Humidity;BMP_temperature;BMP_pressure;BME280_temperature;BME280_humidity;BME280_pressure;Samples;Min_cycle;Max_cycle;Signal;HPM_P1;HPM_P2
2023/02/04 00:00:02;;;;;;;;;;;10.40;82.90;;;9.18;66.20;102063.00;5027558;28;20458;-79
2023/02/04 00:02:33;;;;;;;;;;;10.40;83.10;;;9.21;65.96;102052.81;5027314;28;20355;-79
2023/02/04 00:05:00;;;;;;;;;;;10.40;82.80;;;9.22;65.85;102056.31;5027179;28;20320;-79
2023/02/04 00:07:27;;;;;;;;;;;10.40;82.90;;;9.23;65.87;102066.81;5028654;28;19929;-79
2023/02/04 00:09:53;;;;;;;;;;;10.40;82.70;;;9.19;65.53;102062.81;5022283;28;20282;-79
2023/02/04 00:12:20;;;;;;;;;;;10.40;82.50;;;9.17;65.22;102058.63;5029352;28;19929;-79
2023/02/04 00:14:47;;;;;;;;;;;10.50;82.20;;;9.12;65.52;102063.63;5029697;28;19925;-79
2023/02/04 00:17:16;;;;;;;;;;;10.40;82.40;;;9.06;65.35;102066.94;5028710;28;19930;-79
2023/02/04 00:19:43;;;;;;;;;;;10.30;82.40;;;9.09;65.43;102064.78;5028416;28;20426;-79
2023/02/04 00:22:10;;;;;;;;;;;10.30;82.40;;;9.06;65.61;102074.91;5021898;28;20072;-79
2023/02/04 00:24:38;;;;;;;;;;;10.30;82.70;;;8.97;65.03;102077.53;5027089;28;19929;-79
2023/02/04 00:27:06;;;;;;;;;;;10.30;82.20;;;8.89;65.55;102076.69;5026896;28;19952;-79
2023/02/04 00:29:33;;;;;;;;;;;10.20;82.00;;;8.97;65.79;102080.19;5028803;28;19960;-79
2023/02/04 00:32:00;;;;;;;;;;;10.30;82.50;;;9.00;65.80;102082.56;5021230;28;20477;-79
2023/02/04 00:34:28;;;;;;;;;;;10.30;82.50;;;9.03;65.42;102090.22;5024357;28;19929;-79
2023/02/04 00:36:55;;;;;;;;;;;10.30;82.50;;;8.83;65.83;102087.97;5022391;28;19972;-79
2023/02/04 00:39:22;;;;;;;;;;;10.50;82.50;;;8.83;66.04;102087.97;5019654;28;19976;-79
2023/02/04 00:41:49;;;;;;;;;;;10.20;82.50;;;8.88;66.36;102085.66;5025969;28;19929;-79
2023/02/04 00:44:16;;;;;;;;;;;10.20;82.50;;;8.93;66.22;102091.31;5028247;28;19925;-80
2023/02/04 00:46:43;;;;;;;;;;;10.20;82.70;;;8.97;66.28;102088.19;5024510;28;20370;-79
2023/02/04 00:49:10;;;;;;;;;;;10.20;82.70;;;9.01;66.03;102092.19;5021601;28;19935;-79
2023/02/04 00:51:40;;;;;;;;;;;10.20;82.60;;;8.97;66.07;102084.69;5029194;28;19933;-79
2023/02/04 00:54:07;;;;;;;;;;;10.50;82.90;;;9.03;66.02;102086.72;5024326;28;20019;-79
2023/02/04 00:56:35;;;;;;;;;;;10.20;82.70;;;9.01;65.92;102084.22;5027693;28;19929;-79
2023/02/04 00:59:02;;;;;;;;;;;10.20;82.60;;;9.07;65.85;102088.06;5019658;28;19933;-79
2023/02/04 01:01:29;;;;;;;;;;;10.30;82.70;;;9.08;65.64;102094.22;5029672;28;19929;-79
2023/02/04 01:03:56;;;;;;;;;;;10.30;82.70;;;9.08;65.74;102088.88;5031189;28;19925;-79
2023/02/04 01:06:24;;;;;;;;;;;10.30;82.70;;;9.08;66.02;102099.53;5031511;28;19992;-79
2023/02/04 01:08:52;;;;;;;;;;;10.30;82.70;;;9.10;65.87;102103.72;5023888;28;20294;-79
2023/02/04 01:11:19;;;;;;;;;;;10.30;82.70;;;9.10;65.76;102102.88;5029489;28;19929;-79
2023/02/04 01:13:46;;;;;;;;;;;10.30;82.70;;;9.08;65.72;102100.41;5030889;28;19925;-79
2023/02/04 01:16:13;;;;;;;;;;;10.30;82.60;;;9.07;65.93;102111.19;5030371;28;20333;-79
2023/02/04 01:18:40;;;;;;;;;;;10.30;82.70;;;9.09;65.87;102106.53;5026930;28;19929;-79
2023/02/04 01:21:07;;;;;;;;;;;10.30;82.70;;;9.10;65.65;102116.19;5031161;28;19947;-79
2023/02/04 01:23:34;;;;;;;;;;;10.30;82.60;;;9.07;65.95;102124.47;5029656;28;19933;-79
2023/02/04 01:26:03;;;;;;;;;;;10.30;82.90;;;9.08;65.88;102129.66;5030636;28;19926;-79
2023/02/04 01:28:30;;;;;;;;;;;10.30;82.70;;;9.11;65.84;102126.66;5023792;28;19929;-80
2023/02/04 01:30:58;;;;;;;;;;;10.30;82.70;;;9.11;65.70;102134.66;5031748;28;19929;-79
2023/02/04 01:33:25;;;;;;;;;;;10.30;82.60;;;9.10;65.74;102135.66;5029319;28;19936;-79
2023/02/04 01:35:52;;;;;;;;;;;10.30;82.70;;;9.03;65.68;102143.44;5029881;28;19983;-79
2023/02/04 01:38:19;;;;;;;;;;;10.30;82.50;;;9.07;65.74;102138.63;5029527;28;19925;-79
2023/02/04 01:40:47;;;;;;;;;;;10.30;82.60;;;9.10;65.80;102140.97;5030281;28;20349;-79
2023/02/04 01:43:16;;;;;;;;;;;10.30;82.70;;;9.06;66.18;102144.94;5026069;28;19925;-79
2023/02/04 01:45:43;;;;;;;;;;;10.30;82.90;;;9.09;66.06;102147.28;5023560;28;19941;-79
2023/02/04 01:48:11;;;;;;;;;;;10.30;82.80;;;9.10;66.13;102146.28;5028337;28;19929;-79
2023/02/04 01:50:38;;;;;;;;;;;10.50;82.90;;;9.13;65.93;102138.00;5028175;28;19933;-79
2023/02/04 01:53:05;;;;;;;;;;;10.30;82.50;;;9.14;65.84;102147.66;5031095;28;19983;-79
2023/02/04 01:55:33;;;;;;;;;;;10.40;82.60;;;9.14;65.75;102152.13;5030866;28;20381;-79
2023/02/04 01:58:00;;;;;;;;;;;10.30;82.60;;;9.13;65.51;102143.31;5029898;28;19929;-79
2023/02/04 02:00:32;;;;;;;;;;;10.40;82.50;;;9.12;65.74;102146.97;5027865;28;19929;-79
2023/02/04 02:02:59;;;;;;;;;;;10.40;82.60;;;9.14;65.77;102158.28;5020834;28;19925;-79
2023/02/04 02:05:31;;;;;;;;;;;10.40;82.60;;;9.14;65.83;102154.81;5030554;28;19931;-79
2023/02/04 02:08:00;;;;;;;;;;;10.40;82.60;;;9.16;65.67;102150.97;5021937;28;19936;-79
2023/02/04 02:10:28;;;;;;;;;;;10.30;82.70;;;9.16;65.72;102152.81;5030071;28;19925;-79
2023/02/04 02:12:55;;;;;;;;;;;10.40;82.60;;;9.15;65.86;102153.81;5029050;28;19929;-79
2023/02/04 02:15:23;;;;;;;;;;;10.40;82.50;;;9.16;65.76;102148.31;5030048;28;19932;-79
2023/02/04 02:17:52;;;;;;;;;;;10.40;82.30;;;9.16;65.95;102155.47;5028568;28;19933;-79
2023/02/04 02:20:21;;;;;;;;;;;10.40;82.70;;;9.16;66.00;102155.47;5029154;28;19929;-79
2023/02/04 02:22:57;;;;;;;;;;;10.40;82.70;;;9.14;66.00;102154.81;5026698;28;19925;-79
2023/02/04 02:25:26;;;;;;;;;;;10.30;82.90;;;9.16;66.04;102171.44;5019385;28;19926;-79
2023/02/04 02:27:53;;;;;;;;;;;10.40;83.00;;;9.13;65.99;102167.28;5027739;28;20401;-79
2023/02/04 02:30:20;;;;;;;;;;;10.30;82.90;;;9.14;65.94;102170.78;5031387;28;19943;-79
2023/02/04 02:32:47;;;;;;;;;;;10.40;82.90;;;9.14;66.14;102176.09;5026469;28;20398;-79
2023/02/04 02:35:15;;;;;;;;;;;10.40;82.90;;;9.12;66.00;102170.09;5024489;28;19947;-79
2023/02/04 02:37:42;;;;;;;;;;;10.30;82.90;;;9.11;66.35;102182.56;5023056;28;19929;-79
2023/02/04 02:40:11;;;;;;;;;;;10.30;82.90;;;9.16;65.86;102187.41;5030193;28;19929;-79
2023/02/04 02:42:42;;;;;;;;;;;10.40;82.70;;;9.16;65.82;102188.25;5028335;28;19929;-79
2023/02/04 02:45:21;;;;;;;;;;;10.40;82.70;;;9.16;65.80;102182.91;5029395;28;19929;-79
2023/02/04 02:47:49;;;;;;;;;;;10.40;82.60;;;9.17;65.60;102189.06;5028164;28;19975;-79
2023/02/04 02:50:19;;;;;;;;;;;10.40;82.50;;;9.12;65.75;102192.22;5029168;28;20008;-79
2023/02/04 02:52:46;;;;;;;;;;;10.30;82.50;;;9.04;65.72;102189.53;5022738;28;19929;-79
2023/02/04 02:55:16;;;;;;;;;;;10.30;82.60;;;9.06;66.13;102186.69;5030616;28;19925;-79
2023/02/04 02:57:46;;;;;;;;;;;10.30;82.70;;;9.05;65.83;102185.03;5026614;28;20365;-79
2023/02/04 03:00:16;;;;;;;;;;;10.30;82.60;;;9.07;66.15;102188.34;5029337;28;19925;-79
2023/02/04 03:02:43;;;;;;;;;;;10.30;82.90;;;9.09;66.06;102189.88;5028534;28;19932;-79
2023/02/04 03:05:12;;;;;;;;;;;10.30;82.90;;;9.12;65.94;102192.22;5029310;28;19929;-79
2023/02/04 03:07:39;;;;;;;;;;;10.30;82.70;;;9.11;65.94;102182.56;5023463;28;19983;-79
2023/02/04 03:10:06;;;;;;;;;;;10.30;82.70;;;9.10;66.15;102188.88;5028013;28;20028;-79
2023/02/04 03:12:33;;;;;;;;;;;10.30;82.90;;;9.10;66.07;102188.88;5029915;28;19948;-79
2023/02/04 03:15:03;;;;;;;;;;;10.30;82.90;;;9.11;66.14;102193.22;5028683;28;19929;-79
2023/02/04 03:17:31;;;;;;;;;;;10.30;82.90;;;9.12;66.01;102207.34;5026683;28;19929;-79
2023/02/04 03:19:58;;;;;;;;;;;10.30;82.80;;;9.15;65.89;102202.53;5028975;28;19932;-79
2023/02/04 03:22:25;;;;;;;;;;;10.30;82.60;;;9.17;65.50;102205.88;5028859;28;20401;-79
2023/02/04 03:24:52;;;;;;;;;;;10.30;82.50;;;9.16;65.77;102212.19;5025189;28;20036;-79
2023/02/04 03:27:19;;;;;;;;;;;10.40;82.60;;;9.15;65.76;102202.53;5026389;28;20583;-79
2023/02/04 03:29:46;;;;;;;;;;;10.30;82.50;;;9.15;65.44;102202.53;5028548;28;19929;-79
2023/02/04 03:32:14;;;;;;;;;;;10.40;82.30;;;9.15;65.46;102202.53;5029829;28;19933;-79
2023/02/04 03:34:41;;;;;;;;;;;10.30;82.20;;;9.13;65.13;102209.88;5027507;28;20024;-79
2023/02/04 03:37:08;;;;;;;;;;;10.30;81.90;;;9.13;65.12;102212.53;5028542;28;19929;-79
2023/02/04 03:39:35;;;;;;;;;;;10.30;82.20;;;9.12;65.37;102208.19;5028695;28;20569;-79
2023/02/04 03:42:02;;;;;;;;;;;10.30;82.40;;;9.12;65.46;102213.50;5020458;28;19952;-79
2023/02/04 03:44:29;;;;;;;;;;;10.30;82.30;;;9.13;65.33;102209.03;5029865;28;19929;-79
2023/02/04 03:46:56;;;;;;;;;;;10.30;82.30;;;9.11;65.59;102216.34;5026818;28;19929;-79
2023/02/04 03:49:24;;;;;;;;;;;10.30;82.50;;;9.09;65.69;102226.31;5028215;28;19957;-79
2023/02/04 03:51:51;;;;;;;;;;;10.30;82.50;;;9.12;65.46;102220.66;5026214;28;20297;-79
2023/02/04 03:54:18;;;;;;;;;;;10.30;82.40;;;9.11;65.46;102222.47;5024956;28;19925;-79
2023/02/04 03:56:45;;;;;;;;;;;10.30;82.30;;;9.12;65.38;102225.97;5027370;28;19948;-79
2023/02/04 03:59:12;;;;;;;;;;;10.30;82.20;;;9.14;65.30;102232.81;5025462;28;19956;-79
2023/02/04 04:01:39;;;;;;;;;;;10.30;82.30;;;9.13;65.21;102225.84;5029943;28;20291;-79
2023/02/04 04:04:06;;;;;;;;;;;10.30;82.20;;;9.15;65.33;102221.19;5029312;28;19929;-79
2023/02/04 04:06:34;;;;;;;;;;;10.30;82.20;;;9.14;65.30;102214.19;5028965;28;19925;-79
2023/02/04 04:09:01;;;;;;;;;;;10.30;82.20;;;9.11;65.46;102216.34;5027279;28;19947;-79
2023/02/04 04:11:28;;;;;;;;;;;10.30;82.30;;;9.11;65.38;102216.34;5029113;28;19968;-79
2023/02/04 04:13:55;;;;;;;;;;;10.30;82.20;;;9.11;65.49;102224.31;5027778;28;19955;-79
2023/02/04 04:16:22;;;;;;;;;;;10.30;82.20;;;9.13;65.29;102220.50;5026996;28;19925;-79
2023/02/04 04:18:49;;;;;;;;;;;10.30;82.20;;;9.09;65.22;102231.63;5028182;28;19933;-79
2023/02/04 04:21:16;;;;;;;;;;;10.30;82.20;;;9.05;65.42;102239.09;5028868;28;20040;-79
2023/02/04 04:23:44;;;;;;;;;;;10.30;82.20;;;9.05;65.67;102238.25;5027906;28;20372;-79
2023/02/04 04:26:11;;;;;;;;;;;10.20;82.30;;;8.96;65.65;102248.00;5028635;28;20439;-79
2023/02/04 04:28:38;;;;;;;;;;;10.20;82.50;;;8.96;66.02;102248.00;5026403;28;19929;-79
2023/02/04 04:31:05;;;;;;;;;;;10.20;82.60;;;8.98;66.09;102254.88;5018800;28;19933;-79
2023/02/04 04:33:32;;;;;;;;;;;10.20;82.60;;;8.96;66.09;102263.97;5060729;23;20396;-79
2023/02/04 04:35:59;;;;;;;;;;;10.20;82.70;;;8.97;66.09;102266.47;5068607;28;19932;-79
2023/02/04 04:38:26;;;;;;;;;;;10.20;82.80;;;8.98;66.04;102270.84;5069764;28;19932;-79
2023/02/04 04:40:54;;;;;;;;;;;10.20;82.80;;;8.99;66.01;102271.66;5075601;28;19928;-79
2023/02/04 04:43:21;;;;;;;;;;;10.20;82.70;;;9.02;65.87;102263.34;5072451;28;20323;-79
2023/02/04 04:45:48;;;;;;;;;;;10.20;82.70;;;9.00;66.16;102262.69;5081687;28;20428;-79
2023/02/04 04:48:15;;;;;;;;;;;10.20;82.70;;;8.97;66.10;102260.31;5063694;28;20651;-79
2023/02/04 04:50:42;;;;;;;;;;;10.20;82.90;;;9.01;66.04;102267.00;5062447;28;20286;-79
2023/02/04 04:53:10;;;;;;;;;;;10.20;82.80;;;8.97;66.10;102266.47;5086914;28;19924;-79
2023/02/04 04:55:37;;;;;;;;;;;10.20;82.70;;;8.99;65.92;102272.50;5086632;28;19932;-79
2023/02/04 04:58:05;;;;;;;;;;;10.20;82.80;;;8.98;66.17;102268.16;5071525;28;19935;-79
2023/02/04 05:00:33;;;;;;;;;;;10.20;82.90;;;8.98;66.32;102265.50;5072713;28;19928;-79
2023/02/04 05:03:00;;;;;;;;;;;10.20;82.90;;;9.00;65.96;102270.66;5086604;28;19931;-79
2023/02/04 05:05:27;;;;;;;;;;;10.20;82.70;;;8.94;66.28;102277.44;5083600;28;19928;-79
2023/02/04 05:07:54;;;;;;;;;;;10.20;82.90;;;8.97;66.20;102279.78;5068644;28;19929;-79
2023/02/04 05:10:21;;;;;;;;;;;10.20;82.80;;;8.97;66.25;102285.09;5070796;28;19929;-79
2023/02/04 05:12:47;;;;;;;;;;;10.20;82.90;;;8.96;66.35;102287.94;5081034;28;20407;-79
2023/02/04 05:15:16;;;;;;;;;;;10.20;82.90;;;8.97;66.29;102285.09;5072818;28;19936;-79
2023/02/04 05:17:43;;;;;;;;;;;10.20;82.90;;;8.96;66.38;102294.09;5071794;28;20701;-79
2023/02/04 05:20:11;;;;;;;;;;;10.20;83.00;;;8.96;66.41;102295.91;5062715;28;19925;-79
2023/02/04 05:22:38;;;;;;;;;;;10.20;83.10;;;8.96;66.42;102299.41;5069085;28;19935;-79
2023/02/04 05:25:05;;;;;;;;;;;10.20;82.90;;;8.99;66.20;102300.94;5072362;28;19928;-79
2023/02/04 05:27:32;;;;;;;;;;;10.20;82.90;;;8.90;66.19;102301.88;5068121;28;20591;-79
2023/02/04 05:29:59;;;;;;;;;;;10.10;82.90;;;8.91;66.43;102300.88;5068897;28;19936;-79
2023/02/04 05:32:27;;;;;;;;;;;10.10;83.10;;;8.95;66.52;102299.56;5067461;28;19929;-78
2023/02/04 05:34:54;;;;;;;;;;;10.20;83.00;;;8.92;66.49;102303.38;5070407;28;20467;-79
2023/02/04 05:37:21;;;;;;;;;;;10.20;83.10;;;8.94;66.45;102312.03;5063371;28;20057;-77
2023/02/04 05:39:48;;;;;;;;;;;10.20;82.90;;;8.95;66.31;102303.06;5060779;28;19928;-75
2023/02/04 05:42:15;;;;;;;;;;;10.20;82.90;;;8.96;66.27;102315.38;5070301;28;19929;-76
2023/02/04 05:44:42;;;;;;;;;;;10.20;82.90;;;8.97;66.13;102324.19;5071659;28;19925;-76
2023/02/04 05:47:09;;;;;;;;;;;10.20;82.70;;;8.97;66.03;102314.38;5068962;28;19928;-76
2023/02/04 05:49:37;;;;;;;;;;;10.20;82.70;;;8.95;65.98;102312.88;5068487;28;19943;-75
2023/02/04 05:52:04;;;;;;;;;;;10.20;82.70;;;8.94;66.37;102319.19;5068947;28;20415;-76
2023/02/04 05:54:31;;;;;;;;;;;10.20;82.80;;;8.98;65.94;102320.56;5060253;28;19929;-76
2023/02/04 05:56:58;;;;;;;;;;;10.20;82.60;;;8.98;65.75;102326.72;5070461;28;19928;-76
2023/02/04 05:59:25;;;;;;;;;;;10.20;82.50;;;8.99;65.75;102328.38;5070733;28;19936;-76
2023/02/04 06:01:52;;;;;;;;;;;10.20;82.50;;;9.00;65.61;102339.84;5071888;28;19924;-76
2023/02/04 06:04:19;;;;;;;;;;;10.20;82.50;;;8.97;65.86;102342.81;5069916;28;19928;-76
2023/02/04 06:06:47;;;;;;;;;;;10.20;82.60;;;8.94;65.99;102349.28;5078906;28;19935;-76
2023/02/04 06:09:14;;;;;;;;;;;10.20;82.80;;;8.94;66.18;102348.47;5065290;28;19933;-76
2023/02/04 06:11:41;;;;;;;;;;;10.10;82.90;;;8.87;66.15;102350.06;5073357;28;20308;-76
2023/02/04 06:14:09;;;;;;;;;;;10.10;82.90;;;8.90;66.23;102349.75;5071499;28;19928;-76
2023/02/04 06:16:36;;;;;;;;;;;10.10;82.90;;;8.92;66.31;102356.59;5070387;28;19928;-76
2023/02/04 06:19:03;;;;;;;;;;;10.10;82.90;;;8.94;66.28;102359.94;5068783;28;19940;-77
2023/02/04 06:21:30;;;;;;;;;;;10.10;82.90;;;8.95;66.41;102358.94;5071345;28;20414;-76
2023/02/04 06:23:58;;;;;;;;;;;10.20;82.90;;;8.96;66.19;102362.44;5068686;28;19936;-76
2023/02/04 06:26:26;;;;;;;;;;;10.20;82.90;;;8.95;66.32;102366.09;5066408;28;20353;-76
2023/02/04 06:28:52;;;;;;;;;;;10.30;83.10;;;8.96;65.95;102368.59;5075567;28;19928;-76
2023/02/04 06:31:19;;;;;;;;;;;10.20;82.90;;;8.97;66.32;102361.44;5071157;28;19928;-76
2023/02/04 06:33:46;;;;;;;;;;;10.20;82.90;;;8.97;66.40;102372.91;5069639;28;19928;-76
2023/02/04 06:36:13;;;;;;;;;;;10.20;82.90;;;8.97;66.36;102364.09;5075462;28;19981;-75
2023/02/04 06:38:40;;;;;;;;;;;10.20;83.00;;;8.97;66.67;102367.59;5080431;28;19924;-74
2023/02/04 06:41:08;;;;;;;;;;;10.40;83.20;;;9.00;66.31;102361.16;5066886;28;20506;-75
2023/02/04 06:43:35;;;;;;;;;;;10.20;83.00;;;8.97;66.33;102356.94;5064531;28;19929;-75
2023/02/04 06:46:02;;;;;;;;;;;10.20;82.90;;;8.98;66.38;102360.47;5069915;28;19928;-75
2023/02/04 06:48:29;;;;;;;;;;;10.20;83.00;;;8.98;66.33;102357.81;5078120;28;19924;-77
2023/02/04 06:50:56;;;;;;;;;;;10.20;82.90;;;8.99;66.39;102364.81;5069199;28;19925;-77
2023/02/04 06:53:23;;;;;;;;;;;10.20;83.10;;;9.00;66.33;102356.66;5068682;28;20296;-77
2023/02/04 06:55:51;;;;;;;;;;;10.20;82.90;;;9.02;66.29;102372.47;5068120;28;19932;-76
2023/02/04 06:58:19;;;;;;;;;;;10.20;83.10;;;9.06;66.14;102367.66;5069662;28;19960;-76
2023/02/04 07:00:46;;;;;;;;;;;10.20;82.90;;;9.07;66.03;102370.16;5077987;28;20491;-77
2023/02/04 07:03:13;;;;;;;;;;;10.20;82.70;;;9.06;66.08;102381.81;5068649;28;19925;-77
2023/02/04 07:05:40;;;;;;;;;;;10.20;82.70;;;9.07;66.11;102379.97;5070298;28;19928;-76
2023/02/04 07:08:07;;;;;;;;;;;10.20;82.80;;;9.07;65.85;102372.84;5074186;28;19928;-76
2023/02/04 07:10:34;;;;;;;;;;;10.30;82.70;;;9.06;65.95;102384.47;5078195;28;19928;-77
2023/02/04 07:13:01;;;;;;;;;;;10.20;82.80;;;9.06;65.96;102379.16;5065050;28;20219;-77
2023/02/04 07:15:30;;;;;;;;;;;10.20;82.80;;;9.06;65.94;102380.97;5064767;28;19982;-77
2023/02/04 07:17:57;;;;;;;;;;;10.30;82.70;;;9.07;65.61;102382.66;5073083;28;19977;-77
2023/02/04 07:20:24;;;;;;;;;;;10.30;82.50;;;9.05;65.75;102388.13;5081796;28;19943;-77
2023/02/04 07:22:51;;;;;;;;;;;10.30;82.50;;;9.03;65.75;102390.13;5077297;28;19924;-76
2023/02/04 07:25:17;;;;;;;;;;;10.30;82.50;;;9.02;66.06;102399.06;5067584;28;19939;-76
2023/02/04 07:27:44;;;;;;;;;;;10.30;82.60;;;9.02;66.11;102404.41;5068499;28;19932;-76
2023/02/04 07:30:12;;;;;;;;;;;10.20;82.70;;;9.02;66.17;102404.41;5059841;28;19932;-75
2023/02/04 07:32:40;;;;;;;;;;;10.30;82.90;;;9.01;66.14;102411.53;5074883;28;19928;-76
2023/02/04 07:35:08;;;;;;;;;;;10.30;82.70;;;9.00;66.33;102412.53;5066442;28;19935;-76
2023/02/04 07:37:35;;;;;;;;;;;10.30;82.80;;;8.99;66.34;102410.03;5077300;28;20708;-76
2023/02/04 07:40:02;;;;;;;;;;;10.30;82.90;;;8.99;66.45;102420.69;5070346;28;20431;-76
2023/02/04 07:42:28;;;;;;;;;;;10.30;82.90;;;8.98;66.47;102424.34;5069394;28;19925;-76
2023/02/04 07:45:05;;;;;;;;;;;10.30;83.00;;;8.99;66.53;102423.34;5066785;28;20378;-76
2023/02/04 07:47:31;;;;;;;;;;;10.20;82.80;;;8.98;66.44;102419.03;5055704;28;19931;-76
2023/02/04 07:50:00;;;;;;;;;;;10.20;82.80;;;9.00;66.51;102427.69;5060798;28;19960;-76
2023/02/04 07:52:27;;;;;;;;;;;10.20;83.00;;;9.00;66.67;102428.50;5061938;28;20389;-76
2023/02/04 07:54:54;;;;;;;;;;;10.20;83.10;;;9.00;66.56;102423.19;5062594;28;19925;-76
2023/02/04 07:57:21;;;;;;;;;;;10.20;83.10;;;9.01;66.54;102424.03;5062467;28;19928;-76
2023/02/04 07:59:48;;;;;;;;;;;10.20;82.90;;;9.00;66.20;102419.69;5059578;28;19932;-76
2023/02/04 08:02:15;;;;;;;;;;;10.20;82.70;;;9.00;66.44;102430.34;5062750;28;19929;-77
2023/02/04 08:04:42;;;;;;;;;;;10.20;82.90;;;9.00;66.47;102427.69;5063840;28;19931;-76
2023/02/04 08:07:10;;;;;;;;;;;10.20;83.00;;;8.99;66.61;102431.34;5058494;28;19924;-77
2023/02/04 08:09:37;;;;;;;;;;;10.20;83.10;;;8.97;66.77;102433.28;5070787;28;19928;-76
2023/02/04 08:12:04;;;;;;;;;;;10.20;83.30;;;8.97;66.61;102434.13;5063782;28;19931;-77
2023/02/04 08:14:31;;;;;;;;;;;10.20;83.30;;;8.97;66.81;102442.09;5065875;28;19925;-76
2023/02/04 08:16:58;;;;;;;;;;;10.20;83.30;;;8.99;66.78;102448.13;5068059;28;20300;-76
2023/02/04 08:19:25;;;;;;;;;;;10.20;83.30;;;9.02;66.83;102441.66;5061866;28;19928;-75
2023/02/04 08:21:52;;;;;;;;;;;10.20;83.20;;;9.01;66.95;102454.13;5064208;28;19924;-76
2023/02/04 08:24:21;;;;;;;;;;;10.20;83.30;;;9.02;66.87;102457.63;5069184;28;19924;-79
2023/02/04 08:26:48;;;;;;;;;;;10.20;83.30;;;9.03;67.07;102454.84;5080339;28;19925;-76
2023/02/04 08:29:15;;;;;;;;;;;10.20;83.40;;;9.06;67.08;102455.50;5070235;28;19928;-76
2023/02/04 08:31:41;;;;;;;;;;;10.20;83.60;;;9.06;67.18;102459.00;5071310;28;19931;-77
2023/02/04 08:34:08;;;;;;;;;;;10.30;83.70;;;9.08;67.22;102459.69;5064076;28;19989;-77
2023/02/04 08:36:35;;;;;;;;;;;10.30;83.80;;;9.09;67.12;102464.03;5055084;28;19929;-77
2023/02/04 08:39:03;;;;;;;;;;;10.30;83.70;;;9.11;67.16;102472.69;5069951;28;19925;-77
2023/02/04 08:41:32;;;;;;;;;;;10.30;83.90;;;9.13;66.99;102481.38;5079662;28;20299;-76
2023/02/04 08:43:59;;;;;;;;;;;10.30;83.90;;;9.12;66.99;102479.69;5084772;28;20059;-77
2023/02/04 08:46:26;;;;;;;;;;;10.30;83.90;;;9.14;66.97;102480.38;5068563;28;19929;-77
2023/02/04 08:48:53;;;;;;;;;;;10.30;83.90;;;9.10;67.02;102481.66;5072104;28;19928;-77
2023/02/04 08:51:20;;;;;;;;;;;10.30;84.00;;;9.12;67.24;102490.31;5068902;28;19952;-77
2023/02/04 08:53:47;;;;;;;;;;;10.30;84.00;;;9.15;67.26;102491.88;5064606;28;19933;-76
2023/02/04 08:56:15;;;;;;;;;;;10.30;84.10;;;9.10;67.28;102497.63;5067157;28;19929;-77
2023/02/04 08:58:44;;;;;;;;;;;10.50;84.10;;;9.12;67.31;102495.66;5072976;28;20591;-76
2023/02/04 09:01:11;;;;;;;;;;;10.30;84.00;;;9.15;67.32;102505.16;5072471;28;19943;-77
2023/02/04 09:03:38;;;;;;;;;;;10.30;84.10;;;9.17;67.41;102504.00;5072002;28;19924;-77
2023/02/04 09:06:06;;;;;;;;;;;10.30;84.30;;;9.18;67.49;102507.53;5071155;28;19928;-77
2023/02/04 09:08:33;;;;;;;;;;;10.30;84.50;;;9.19;67.64;102507.38;5072842;28;19932;-77
2023/02/04 09:11:00;;;;;;;;;;;10.30;84.50;;;9.20;67.58;102492.25;5070044;28;19932;-77
2023/02/04 09:13:27;;;;;;;;;;;10.30;84.50;;;9.20;67.38;102503.72;5072086;28;20296;-77
2023/02/04 09:15:56;;;;;;;;;;;10.40;84.50;;;9.21;67.29;102508.06;5072508;28;19939;-77
2023/02/04 09:18:24;;;;;;;;;;;10.30;84.30;;;9.22;67.44;102500.91;5066055;28;19994;-77
2023/02/04 09:20:52;;;;;;;;;;;10.30;84.50;;;9.20;67.66;102502.88;5071820;28;19936;-77
2023/02/04 09:23:19;;;;;;;;;;;10.30;84.50;;;9.21;67.66;102508.06;5071886;28;19936;-77
2023/02/04 09:25:46;;;;;;;;;;;10.30;84.40;;;9.22;67.47;102509.75;5072618;28;19929;-77
2023/02/04 09:28:15;;;;;;;;;;;10.30;84.40;;;9.24;67.63;102510.41;5072069;28;20399;-77
2023/02/04 09:30:43;;;;;;;;;;;10.30;84.50;;;9.27;67.86;102509.25;5070678;28;19968;-77
2023/02/04 09:33:13;;;;;;;;;;;10.40;84.70;;;9.27;67.82;102515.47;5067691;28;20057;-77
2023/02/04 09:35:40;;;;;;;;;;;10.40;84.70;;;9.28;67.85;102517.13;5069971;28;19958;-76
2023/02/04 09:38:07;;;;;;;;;;;10.40;84.70;;;9.29;67.61;102518.78;5071699;28;19939;-77
2023/02/04 09:40:36;;;;;;;;;;;10.40;84.50;;;9.30;67.72;102516.97;5070344;28;19924;-77
2023/02/04 09:43:05;;;;;;;;;;;10.40;84.60;;;9.31;67.44;102528.44;5069861;28;19931;-76
2023/02/04 09:45:34;;;;;;;;;;;10.50;84.60;;;9.27;67.60;102525.25;5069774;28;20460;-77
2023/02/04 09:48:03;;;;;;;;;;;10.40;84.40;;;9.29;67.67;102529.44;5064667;28;19929;-77
2023/02/04 09:50:33;;;;;;;;;;;10.40;84.50;;;9.31;67.43;102525.78;5070108;28;19928;-77
2023/02/04 09:53:03;;;;;;;;;;;10.40;84.70;;;9.33;67.79;102529.16;5071287;28;20300;-76
2023/02/04 09:55:32;;;;;;;;;;;10.40;84.60;;;9.33;67.52;102534.47;5072217;28;19928;-77
2023/02/04 09:58:00;;;;;;;;;;;10.40;84.30;;;9.33;67.42;102540.63;5069843;28;20011;-77
2023/02/04 10:00:29;;;;;;;;;;;10.50;84.40;;;9.33;67.61;102543.28;5068354;28;19976;-77
2023/02/04 10:02:58;;;;;;;;;;;10.40;84.50;;;9.29;67.59;102545.41;5072049;28;19943;-77
2023/02/04 10:05:28;;;;;;;;;;;10.40;84.30;;;9.31;67.54;102545.25;5062671;28;19928;-77
2023/02/04 10:07:57;;;;;;;;;;;10.40;84.50;;;9.29;67.84;102548.09;5070266;28;20349;-77
2023/02/04 10:10:26;;;;;;;;;;;10.40;84.70;;;9.32;67.59;102551.41;5071536;28;19935;-77
2023/02/04 10:12:55;;;;;;;;;;;10.40;84.60;;;9.32;67.69;102549.63;5071765;28;19936;-77
2023/02/04 10:15:22;;;;;;;;;;;10.40;84.70;;;9.32;67.71;102552.28;5070864;28;19928;-77
2023/02/04 10:17:52;;;;;;;;;;;10.40;84.70;;;9.28;67.32;102549.06;5074162;28;19928;-77
2023/02/04 10:20:20;;;;;;;;;;;10.40;84.30;;;9.20;67.39;102551.66;5060775;28;19948;-77
2023/02/04 10:22:48;;;;;;;;;;;10.30;84.30;;;9.17;68.10;102556.41;5060022;28;19929;-77
2023/02/04 10:25:19;;;;;;;;;;;10.30;84.70;;;9.22;67.96;102556.81;5065505;28;19928;-77
2023/02/04 10:27:50;;;;;;;;;;;10.40;84.70;;;9.25;68.03;102554.69;5061019;28;19924;-77
2023/02/04 10:30:20;;;;;;;;;;;10.40;84.80;;;9.31;68.16;102555.06;5068103;28;20690;-77
2023/02/04 10:35:17;;;;;;;;;;;10.40;84.90;;;9.29;67.98;102556.06;5048602;28;19929;-86
2023/02/04 10:37:44;;;;;;;;;;;10.40;84.90;;;9.34;68.43;102557.44;5050461;28;19925;-83
2023/02/04 10:40:30;;;;;;;;;;;10.60;85.30;;;9.35;68.64;102557.28;5047611;28;19928;-84
2023/02/04 10:42:58;;;;;;;;;;;10.40;85.50;;;9.37;68.33;102554.47;5047136;28;19925;-88
2023/02/04 10:45:27;;;;;;;;;;;10.40;85.10;;;9.37;67.84;102555.31;5070383;28;19929;-82
2023/02/04 10:47:55;;;;;;;;;;;10.50;84.80;;;9.37;67.21;102554.47;5064249;28;19925;-86
2023/02/04 10:50:24;;;;;;;;;;;10.50;84.20;;;9.39;67.33;102550.66;5069238;28;19937;-86
2023/02/04 10:52:54;;;;;;;;;;;10.50;84.40;;;9.42;67.72;102558.38;5070030;28;20087;-85
2023/02/04 10:55:22;;;;;;;;;;;10.50;84.70;;;9.38;67.47;102554.31;5069994;28;19974;-85
2023/02/04 10:57:52;;;;;;;;;;;10.50;84.30;;;9.31;67.44;102553.25;5051854;28;19924;-85
2023/02/04 11:00:20;;;;;;;;;;;10.50;84.20;;;9.35;67.82;102548.47;5066375;28;20027;-85
2023/02/04 11:02:51;;;;;;;;;;;10.60;84.50;;;9.40;67.77;102548.84;5070090;28;19928;-84
2023/02/04 11:05:20;;;;;;;;;;;10.60;84.40;;;9.40;67.37;102551.50;5070607;28;19931;-85
2023/02/04 11:07:48;;;;;;;;;;;10.60;84.00;;;9.32;67.17;102556.75;5069034;28;19928;-85
2023/02/04 11:10:17;;;;;;;;;;;10.50;83.90;;;9.27;67.62;102547.41;5069035;28;20031;-86
2023/02/04 11:12:46;;;;;;;;;;;10.50;84.30;;;9.33;67.80;102545.13;5079382;28;19928;-85
2023/02/04 11:15:53;;;;;;;;;;;10.50;84.50;;;9.34;67.71;102544.97;5060046;28;20273;-86
2023/02/04 11:18:32;;;;;;;;;;;10.50;84.50;;;9.25;67.21;102560.00;5054123;28;19935;-88
2023/02/04 11:20:59;;;;;;;;;;;10.50;83.90;;;9.28;67.80;102557.06;5064845;28;19924;-87